Time;durP1;ratioP1;P1;durP2;ratioP2;P2;SDS_P1;SDS_P2;PMS_P1;PMS_P2;Temp;Humidity;BMP_temperature;BMP_pressure;BME280_temperature;BME280_humidity;BME280_pressure;Samples;Min_cycle;Max_cycle;Signal;HPM_P1;HPM_P2
2021/12/01 00:00:08;;;;;;;75.20;33.63;;;8.70;99.90;;;;;;4964981;28;20122;-74
2021/12/01 00:02:33;;;;;;;76.53;34.17;;;8.80;99.90;;;;;;4969801;28;20043;-74
2021/12/01 00:04:59;;;;;;;74.03;33.28;;;8.80;99.90;;;;;;4967522;28;20055;-74
2021/12/01 00:07:25;;;;;;;58.40;31.45;;;8.80;99.90;;;;;;4967496;28;20204;-74
2021/12/01 00:09:51;;;;;;;58.47;31.42;;;8.80;99.90;;;;;;4968825;28;21639;-75
2021/12/01 00:12:17;;;;;;;56.85;31.17;;;8.80;99.90;;;;;;4967171;28;20042;-74
2021/12/01 00:14:43;;;;;;;56.55;30.65;;;8.80;99.90;;;;;;4967109;28;20035;-74
2021/12/01 00:17:11;;;;;;;56.35;30.85;;;8.80;99.90;;;;;;4970350;28;20065;-74
2021/12/01 00:19:37;;;;;;;56.45;30.58;;;8.80;99.90;;;;;;4968366;28;20077;-74
2021/12/01 00:22:03;;;;;;;57.15;32.22;;;8.90;99.90;;;;;;4969336;28;20051;-74
2021/12/01 00:24:29;;;;;;;54.17;31.33;;;8.90;99.90;;;;;;4969437;28;20061;-74
2021/12/01 00:26:55;;;;;;;53.80;32.05;;;8.90;99.90;;;;;;4966946;28;20129;-74
2021/12/01 00:29:20;;;;;;;56.78;33.83;;;8.90;99.90;;;;;;4968351;28;20090;-74
2021/12/01 00:31:46;;;;;;;53.22;32.80;;;8.90;99.90;;;;;;4970645;28;20133;-74
2021/12/01 00:34:12;;;;;;;54.15;33.88;;;8.90;99.90;;;;;;4964228;28;20046;-74
2021/12/01 00:36:37;;;;;;;58.92;35.42;;;8.90;99.90;;;;;;4968879;28;20038;-74
2021/12/01 00:39:03;;;;;;;56.65;36.38;;;9.00;99.90;;;;;;4966437;28;20050;-74
2021/12/01 00:41:29;;;;;;;56.33;37.00;;;9.00;99.90;;;;;;4967742;28;20085;-74
2021/12/01 00:43:54;;;;;;;56.60;36.65;;;9.00;99.90;;;;;;4969187;28;20054;-73
2021/12/01 00:46:24;;;;;;;59.00;37.88;;;9.00;99.90;;;;;;4966634;28;20118;-74
2021/12/01 00:48:50;;;;;;;63.25;39.90;;;9.00;99.90;;;;;;4967766;28;20053;-74
2021/12/01 00:51:16;;;;;;;60.35;40.00;;;9.00;99.90;;;;;;4968631;28;20445;-74
2021/12/01 00:53:42;;;;;;;64.07;39.92;;;9.00;99.90;;;;;;4969077;28;20047;-74
2021/12/01 00:56:08;;;;;;;62.95;39.63;;;9.10;99.90;;;;;;4970389;28;20130;-74
2021/12/01 00:58:34;;;;;;;60.63;40.17;;;9.00;99.90;;;;;;4968166;28;20047;-74
2021/12/01 01:01:01;;;;;;;63.53;40.28;;;9.10;99.90;;;;;;4967313;28;20050;-74
2021/12/01 01:03:28;;;;;;;58.20;40.08;;;9.10;99.90;;;;;;4965772;28;20406;-74
2021/12/01 01:05:54;;;;;;;59.17;38.22;;;9.10;99.90;;;;;;4968549;28;20703;-74
2021/12/01 01:08:20;;;;;;;62.88;39.40;;;9.10;99.90;;;;;;4969047;28;20055;-74
2021/12/01 01:11:07;;;;;;;54.38;37.58;;;9.10;99.90;;;;;;4966885;28;20097;-74
2021/12/01 01:16:23;;;;;;;56.78;37.30;;;9.10;99.90;;;;;;4967564;28;20410;-74
2021/12/01 01:18:53;;;;;;;64.50;39.20;;;9.10;99.90;;;;;;4968554;28;20046;-74
2021/12/01 01:21:19;;;;;;;64.15;41.33;;;9.20;99.90;;;;;;4966681;28;20051;-74
2021/12/01 01:23:45;;;;;;;65.00;39.47;;;9.10;99.90;;;;;;4968165;28;20038;-75
2021/12/01 01:26:14;;;;;;;68.78;39.78;;;9.20;99.90;;;;;;4970186;28;20546;-75
2021/12/01 01:28:41;;;;;;;75.63;39.58;;;9.20;99.90;;;;;;4969341;28;20051;-75
2021/12/01 01:31:08;;;;;;;64.32;38.25;;;9.20;99.90;;;;;;4967528;28;20059;-74
2021/12/01 01:33:33;;;;;;;71.07;39.83;;;9.20;99.90;;;;;;4967075;28;20047;-74
2021/12/01 01:35:59;;;;;;;66.30;36.97;;;9.20;99.90;;;;;;4968610;28;20317;-74
2021/12/01 01:38:25;;;;;;;60.75;35.50;;;9.20;99.90;;;;;;4967868;28;20073;-74
2021/12/01 01:40:50;;;;;;;63.75;35.45;;;9.20;99.90;;;;;;4965223;28;20077;-74
2021/12/01 01:43:16;;;;;;;61.83;34.72;;;9.20;99.90;;;;;;4967599;28;20050;-74
2021/12/01 01:45:42;;;;;;;60.75;34.33;;;9.20;99.90;;;;;;4966054;28;20057;-74
2021/12/01 01:48:13;;;;;;;63.03;34.25;;;9.20;99.90;;;;;;4965496;28;20061;-74
2021/12/01 01:50:42;;;;;;;62.83;34.15;;;9.20;99.90;;;;;;4966952;28;20042;-74
2021/12/01 01:53:19;;;;;;;52.67;31.90;;;9.20;99.90;;;;;;4965692;28;20562;-74
2021/12/01 01:55:48;;;;;;;55.13;32.90;;;9.20;99.90;;;;;;4965498;28;20035;-74
2021/12/01 01:58:14;;;;;;;51.83;30.80;;;9.20;99.90;;;;;;4967374;28;20058;-74
2021/12/01 02:01:20;;;;;;;51.17;30.70;;;9.30;99.90;;;;;;4966380;28;20038;-74
2021/12/01 02:03:37;;;;;;;58.13;32.28;;;9.20;99.90;;;;;;4964048;28;20141;-74
2021/12/01 02:06:03;;;;;;;45.78;29.50;;;9.30;99.90;;;;;;4967066;28;20142;-74
2021/12/01 02:08:31;;;;;;;48.33;30.08;;;9.30;99.90;;;;;;4965216;28;20058;-74
2021/12/01 02:10:58;;;;;;;44.67;29.00;;;9.30;99.90;;;;;;4965338;28;20122;-74
2021/12/01 02:13:24;;;;;;;;;;;9.30;99.90;;;;;;4964311;28;20145;-74
2021/12/01 02:15:51;;;;;;;42.83;27.00;;;9.30;99.90;;;;;;4964697;28;19976;-74
2021/12/01 02:18:17;;;;;;;;;;;9.30;99.90;;;;;;4967693;28;20067;-74
2021/12/01 02:21:28;;;;;;;42.05;25.02;;;9.30;99.90;;;;;;4965224;28;20477;-74
2021/12/01 02:23:56;;;;;;;43.10;24.60;;;9.40;99.90;;;;;;4967202;28;20057;-74
2021/12/01 02:26:23;;;;;;;44.97;24.90;;;9.30;99.90;;;;;;4966804;28;20046;-74
2021/12/01 02:28:53;;;;;;;39.13;22.45;;;9.40;99.90;;;;;;4966368;28;20039;-74
2021/12/01 02:31:19;;;;;;;34.35;20.45;;;9.40;99.90;;;;;;4966886;28;20134;-74
2021/12/01 02:33:45;;;;;;;34.30;20.05;;;9.40;99.90;;;;;;4960655;28;20047;-74
2021/12/01 02:36:12;;;;;;;31.30;18.42;;;9.40;99.90;;;;;;4969212;28;20042;-73
2021/12/01 02:38:40;;;;;;;31.45;18.38;;;9.40;99.90;;;;;;4963899;28;20081;-74
2021/12/01 02:41:07;;;;;;;29.52;16.13;;;9.40;99.90;;;;;;4954091;28;20047;-74
2021/12/01 02:43:33;;;;;;;24.00;15.87;;;9.50;99.90;;;;;;4965178;28;20482;-74
2021/12/01 02:45:59;;;;;;;23.50;14.80;;;9.40;99.90;;;;;;4966727;28;20061;-74
2021/12/01 02:48:24;;;;;;;22.23;13.35;;;9.50;99.90;;;;;;4965173;28;20046;-74
2021/12/01 02:50:52;;;;;;;18.40;11.60;;;9.40;99.90;;;;;;4964744;28;20130;-74
2021/12/01 02:53:21;;;;;;;17.83;11.57;;;9.40;99.90;;;;;;4965771;28;20062;-74
2021/12/01 02:55:58;;;;;;;16.92;11.15;;;9.50;99.90;;;;;;4964907;28;20039;-74
2021/12/01 02:58:26;;;;;;;15.55;10.60;;;9.40;99.90;;;;;;4966067;28;20066;-74
2021/12/01 03:00:53;;;;;;;13.23;9.45;;;9.50;99.90;;;;;;4964895;28;20047;-74
2021/12/01 03:03:20;;;;;;;15.77;9.85;;;9.50;99.90;;;;;;4965547;28;20050;-74
2021/12/01 03:05:50;;;;;;;12.10;8.90;;;9.50;99.90;;;;;;4950534;28;20057;-74
2021/12/01 03:08:17;;;;;;;13.85;9.60;;;9.50;99.90;;;;;;4964397;28;20074;-74
2021/12/01 03:10:44;;;;;;;13.90;9.80;;;9.50;99.90;;;;;;4965753;28;20134;-74
2021/12/01 03:13:10;;;;;;;12.90;8.98;;;9.60;99.90;;;;;;4968843;28;20113;-75
2021/12/01 03:15:36;;;;;;;10.82;7.93;;;9.60;99.90;;;;;;4963117;28;20448;-74
2021/12/01 03:18:02;;;;;;;13.52;8.75;;;9.60;99.90;;;;;;4959216;28;20404;-74
2021/12/01 03:20:27;;;;;;;12.55;8.80;;;9.60;99.90;;;;;;4966156;28;20509;-74
2021/12/01 03:22:53;;;;;;;13.07;9.40;;;9.60;99.90;;;;;;4966035;28;20043;-74
2021/12/01 03:25:18;;;;;;;11.23;8.30;;;9.70;99.90;;;;;;4966431;28;20077;-74
2021/12/01 03:27:44;;;;;;;13.63;9.23;;;9.60;99.90;;;;;;4969998;28;20053;-74
2021/12/01 03:30:12;;;;;;;13.07;9.70;;;9.60;99.90;;;;;;4968717;28;20434;-74
2021/12/01 03:32:39;;;;;;;12.88;8.82;;;9.60;99.90;;;;;;4972476;28;20046;-74
2021/12/01 03:35:08;;;;;;;11.48;9.07;;;9.70;99.90;;;;;;4970252;28;20051;-74
2021/12/01 03:37:37;;;;;;;13.00;9.80;;;9.70;99.90;;;;;;4970048;28;20073;-75
2021/12/01 03:40:04;;;;;;;10.05;7.95;;;9.60;99.90;;;;;;4969492;28;20085;-74
2021/12/01 03:42:30;;;;;;;9.52;7.78;;;9.70;99.90;;;;;;4967695;28;20050;-74
2021/12/01 03:44:56;;;;;;;11.20;7.93;;;9.70;99.90;;;;;;4968222;28;20042;-74
2021/12/01 03:47:24;;;;;;;9.27;7.68;;;9.60;99.90;;;;;;4969198;28;20161;-74
2021/12/01 03:49:50;;;;;;;8.35;6.88;;;9.70;99.90;;;;;;4965158;28;20101;-74
2021/12/01 03:52:17;;;;;;;8.60;6.78;;;9.70;99.90;;;;;;4969817;28;20039;-74
2021/12/01 03:54:47;;;;;;;8.30;7.10;;;9.70;99.90;;;;;;4968777;28;20050;-74
2021/12/01 03:57:14;;;;;;;8.23;6.80;;;9.70;99.90;;;;;;4966287;28;20043;-74
2021/12/01 03:59:40;;;;;;;7.75;6.82;;;9.70;99.90;;;;;;4968411;28;20055;-74
2021/12/01 04:02:06;;;;;;;8.00;6.97;;;9.70;99.90;;;;;;4970019;28;20519;-74
2021/12/01 04:04:32;;;;;;;8.25;6.75;;;9.70;99.90;;;;;;4970582;28;20468;-74
2021/12/01 04:06:58;;;;;;;7.80;6.28;;;9.70;99.90;;;;;;4970945;28;20050;-74
2021/12/01 04:09:24;;;;;;;7.68;6.00;;;9.70;99.90;;;;;;4968845;28;20097;-74
2021/12/01 04:11:50;;;;;;;6.78;5.90;;;9.70;99.90;;;;;;4968884;28;20523;-75
2021/12/01 04:14:16;;;;;;;8.93;5.90;;;9.70;99.90;;;;;;4969168;28;20042;-74
2021/12/01 04:16:41;;;;;;;8.18;5.70;;;9.70;99.90;;;;;;4967879;28;20043;-74
2021/12/01 04:19:07;;;;;;;5.55;4.93;;;9.70;99.90;;;;;;4966527;28;20051;-74
2021/12/01 04:21:33;;;;;;;6.55;5.18;;;9.70;99.90;;;;;;4967628;28;20051;-74
2021/12/01 04:23:58;;;;;;;6.57;5.03;;;9.70;99.90;;;;;;4967448;28;20053;-74
2021/12/01 04:26:26;;;;;;;6.22;4.88;;;9.70;99.90;;;;;;4971211;28;20153;-73
2021/12/01 04:28:53;;;;;;;6.65;5.20;;;9.60;99.90;;;;;;4970561;28;20118;-75
2021/12/01 04:31:20;;;;;;;7.40;4.50;;;9.60;99.90;;;;;;4966943;28;20528;-74
2021/12/01 04:33:46;;;;;;;5.60;4.60;;;9.60;99.90;;;;;;4966662;28;20039;-74
2021/12/01 04:36:12;;;;;;;5.63;4.45;;;9.60;99.90;;;;;;4970288;28;20051;-74
2021/12/01 04:38:38;;;;;;;5.35;4.10;;;9.60;99.90;;;;;;4968687;28;20483;-74
2021/12/01 04:41:07;;;;;;;5.05;4.05;;;9.60;99.90;;;;;;4969677;28;20060;-74
2021/12/01 04:43:33;;;;;;;4.82;3.85;;;9.50;99.90;;;;;;4970731;28;20061;-74
2021/12/01 04:45:59;;;;;;;5.10;3.60;;;9.50;99.90;;;;;;4969027;28;20058;-74
2021/12/01 04:48:27;;;;;;;4.32;3.47;;;9.50;99.90;;;;;;4965639;28;20053;-74
2021/12/01 04:50:53;;;;;;;;;;;9.50;99.90;;;;;;4967598;28;20057;-74
2021/12/01 04:53:18;;;;;;;3.70;3.30;;;9.50;99.90;;;;;;4965307;28;19922;-74
2021/12/01 04:55:44;;;;;;;3.45;3.03;;;9.40;99.90;;;;;;4967661;28;20051;-75
2021/12/01 04:58:10;;;;;;;3.40;3.00;;;9.40;99.90;;;;;;4968609;28;20129;-74
2021/12/01 05:00:37;;;;;;;3.55;3.25;;;9.40;99.90;;;;;;4968193;28;20054;-74
2021/12/01 05:03:04;;;;;;;4.15;3.38;;;9.40;99.90;;;;;;4969424;28;20418;-74
2021/12/01 05:05:30;;;;;;;5.35;3.85;;;9.40;99.90;;;;;;4968828;28;20098;-74
2021/12/01 05:07:56;;;;;;;5.07;3.90;;;9.40;99.90;;;;;;4968037;28;20388;-74
2021/12/01 05:10:21;;;;;;;4.88;3.78;;;9.40;99.90;;;;;;4969149;28;20050;-74
2021/12/01 05:12:47;;;;;;;5.13;3.90;;;9.40;99.90;;;;;;4968253;28;20035;-74
2021/12/01 05:15:13;;;;;;;5.15;3.72;;;9.40;99.90;;;;;;4967941;28;20066;-74
2021/12/01 05:17:39;;;;;;;5.25;4.07;;;9.30;99.90;;;;;;4966427;28;20043;-74
2021/12/01 05:20:06;;;;;;;4.00;3.40;;;9.30;99.90;;;;;;4967626;28;20093;-74
2021/12/01 05:22:32;;;;;;;;;;;9.30;99.90;;;;;;4966887;28;20105;-74
2021/12/01 05:24:58;;;;;;;4.15;3.72;;;9.30;99.90;;;;;;4968061;28;19922;-74
2021/12/01 05:27:24;;;;;;;4.25;3.75;;;9.20;99.90;;;;;;4969390;28;20042;-75
2021/12/01 05:29:50;;;;;;;4.55;3.67;;;9.30;99.90;;;;;;4968670;28;20042;-74
2021/12/01 05:32:17;;;;;;;5.47;3.78;;;9.30;99.90;;;;;;4967573;28;20046;-74
2021/12/01 05:34:43;;;;;;;4.10;3.53;;;9.20;99.90;;;;;;4966379;28;20042;-74
2021/12/01 05:37:08;;;;;;;4.80;3.60;;;9.20;99.90;;;;;;4967061;28;20046;-74
2021/12/01 05:39:35;;;;;;;4.32;3.42;;;9.20;99.90;;;;;;4966004;28;20770;-74
2021/12/01 05:42:00;;;;;;;5.13;3.70;;;9.20;99.90;;;;;;4969309;28;20046;-74
2021/12/01 05:44:29;;;;;;;4.53;3.58;;;9.20;99.90;;;;;;4966772;28;20549;-74
2021/12/01 05:46:55;;;;;;;4.53;3.67;;;9.20;99.90;;;;;;4966247;28;20047;-74
2021/12/01 05:49:21;;;;;;;5.00;3.80;;;9.20;99.90;;;;;;4966171;28;20541;-74
2021/12/01 05:51:46;;;;;;;5.35;4.00;;;9.10;99.90;;;;;;4968431;28;20042;-74
2021/12/01 05:54:12;;;;;;;4.68;4.05;;;9.10;99.90;;;;;;4964242;28;20116;-74
2021/12/01 05:56:38;;;;;;;4.05;3.63;;;9.10;99.90;;;;;;4967602;28;20403;-74
2021/12/01 05:59:04;;;;;;;4.40;3.88;;;9.10;99.90;;;;;;4963352;28;20418;-74
2021/12/01 06:01:29;;;;;;;3.83;3.38;;;9.10;99.90;;;;;;4964968;28;20039;-74
2021/12/01 06:03:55;;;;;;;4.55;3.72;;;9.10;99.90;;;;;;4958796;28;20050;-74
2021/12/01 06:06:21;;;;;;;3.85;3.45;;;9.10;99.90;;;;;;4967112;28;20055;-75
2021/12/01 06:08:46;;;;;;;3.90;3.47;;;9.00;99.90;;;;;;4965020;28;20043;-74
2021/12/01 06:11:13;;;;;;;4.50;3.83;;;9.10;99.90;;;;;;4964764;28;20141;-74
2021/12/01 06:13:40;;;;;;;5.28;3.97;;;9.00;99.90;;;;;;4964252;28;20502;-74
2021/12/01 06:16:07;;;;;;;4.72;4.18;;;9.00;99.90;;;;;;4958385;28;20050;-73
2021/12/01 06:18:33;;;;;;;4.45;3.95;;;9.00;99.90;;;;;;4966443;28;20058;-74
2021/12/01 06:20:59;;;;;;;4.82;4.28;;;9.00;99.90;;;;;;4965548;28;20080;-74
2021/12/01 06:23:25;;;;;;;5.15;4.65;;;9.00;99.90;;;;;;4964599;28;20054;-74
2021/12/01 06:25:51;;;;;;;4.55;4.15;;;9.00;99.90;;;;;;4963375;28;20043;-74
2021/12/01 06:28:16;;;;;;;5.32;4.40;;;9.00;99.90;;;;;;4966303;28;20065;-74
2021/12/01 06:30:42;;;;;;;5.15;4.43;;;8.90;99.90;;;;;;4965386;28;20045;-74
2021/12/01 06:33:07;;;;;;;5.25;4.30;;;8.90;99.90;;;;;;4964336;28;20038;-74
2021/12/01 06:35:34;;;;;;;5.43;4.47;;;9.00;99.90;;;;;;4967355;28;20064;-74
2021/12/01 06:38:00;;;;;;;4.97;4.50;;;8.90;99.90;;;;;;4966590;28;20687;-74
2021/12/01 06:40:26;;;;;;;6.20;4.15;;;8.90;99.90;;;;;;4967747;28;20070;-74
2021/12/01 06:42:53;;;;;;;5.75;4.72;;;8.90;99.90;;;;;;4963310;28;20507;-74
2021/12/01 06:45:18;;;;;;;6.17;4.60;;;8.90;99.90;;;;;;4968491;28;20050;-74
2021/12/01 06:47:45;;;;;;;4.60;4.20;;;8.90;99.90;;;;;;4965499;28;20856;-74
2021/12/01 06:50:11;;;;;;;4.80;4.40;;;8.90;99.90;;;;;;4967738;28;20066;-74
2021/12/01 06:52:38;;;;;;;4.57;4.18;;;8.90;99.90;;;;;;4967536;28;20045;-74
2021/12/01 06:55:05;;;;;;;4.30;3.90;;;8.90;99.90;;;;;;4967221;28;20046;-74
2021/12/01 06:57:31;;;;;;;4.40;4.00;;;8.90;99.90;;;;;;4967630;28;20297;-75
2021/12/01 06:59:57;;;;;;;4.93;4.15;;;8.90;99.90;;;;;;4966600;28;20117;-74
2021/12/01 07:02:22;;;;;;;4.65;4.10;;;8.80;99.90;;;;;;4965544;28;20089;-74
2021/12/01 07:04:48;;;;;;;4.30;3.90;;;8.80;99.90;;;;;;4964037;28;20058;-74
2021/12/01 07:07:14;;;;;;;4.85;4.35;;;8.90;99.90;;;;;;4959076;28;20043;-73
2021/12/01 07:09:45;;;;;;;4.65;4.07;;;8.80;99.90;;;;;;4964919;28;20058;-74
2021/12/01 07:12:12;;;;;;;4.85;4.40;;;8.90;99.90;;;;;;4965161;28;20102;-74
2021/12/01 07:14:38;;;;;;;5.80;4.20;;;8.80;99.90;;;;;;4964160;28;20086;-74
2021/12/01 07:17:08;;;;;;;5.00;4.50;;;8.80;99.90;;;;;;4964893;28;20070;-73
2021/12/01 07:19:34;;;;;;;4.82;4.32;;;8.80;99.90;;;;;;4963009;28;20051;-73
2021/12/01 07:21:59;;;;;;;4.93;4.43;;;8.80;99.90;;;;;;4963117;28;20047;-73
2021/12/01 07:24:29;;;;;;;5.45;4.38;;;8.80;99.90;;;;;;4965199;28;20141;-73
2021/12/01 07:26:55;;;;;;;6.70;6.10;;;8.80;99.90;;;;;;4963570;28;20042;-73
2021/12/01 07:29:21;;;;;;;5.50;5.00;;;8.80;99.90;;;;;;4965216;28;20055;-73
2021/12/01 07:31:48;;;;;;;5.78;4.90;;;8.80;99.90;;;;;;4964292;28;20072;-72
2021/12/01 07:34:15;;;;;;;4.22;3.33;;;8.80;99.90;;;;;;4964356;28;20513;-73
2021/12/01 07:36:41;;;;;;;4.03;3.63;;;8.80;99.90;;;;;;4959436;28;20039;-72
2021/12/01 07:39:07;;;;;;;3.50;3.20;;;8.80;99.90;;;;;;4965837;28;20126;-73
2021/12/01 07:41:33;;;;;;;3.50;3.20;;;8.80;99.90;;;;;;4966551;28;20089;-72
2021/12/01 07:43:58;;;;;;;3.70;3.40;;;8.80;99.90;;;;;;4964302;28;20051;-73
2021/12/01 07:46:24;;;;;;;5.60;3.72;;;8.80;99.90;;;;;;4980057;28;20050;-72
2021/12/01 07:48:50;;;;;;;3.60;3.30;;;8.80;99.90;;;;;;4961492;28;20078;-72
2021/12/01 07:51:15;;;;;;;3.40;3.10;;;8.80;99.90;;;;;;4964319;28;20039;-73
2021/12/01 07:53:42;;;;;;;3.20;3.00;;;8.80;99.90;;;;;;4963097;28;20071;-73
2021/12/01 07:56:07;;;;;;;3.45;3.03;;;8.80;99.90;;;;;;4964209;28;20046;-73
2021/12/01 07:58:33;;;;;;;3.28;2.83;;;8.80;99.90;;;;;;4964049;28;20101;-72
2021/12/01 08:00:59;;;;;;;2.83;2.63;;;8.80;99.90;;;;;;4962582;28;20054;-72
2021/12/01 08:03:25;;;;;;;3.38;2.70;;;8.80;99.90;;;;;;4964452;28;20051;-72
2021/12/01 08:05:51;;;;;;;3.28;2.90;;;8.80;99.90;;;;;;4963399;28;20460;-71
2021/12/01 08:08:17;;;;;;;3.13;2.88;;;8.80;99.90;;;;;;4955094;28;20054;-72
2021/12/01 08:10:45;;;;;;;3.97;2.65;;;8.80;99.90;;;;;;4962656;28;20042;-71
2021/12/01 08:13:11;;;;;;;3.10;2.80;;;8.80;99.90;;;;;;4967878;28;20075;-71
2021/12/01 08:15:36;;;;;;;3.50;3.20;;;8.80;99.90;;;;;;4968126;28;20521;-71
2021/12/01 08:18:02;;;;;;;3.25;2.97;;;8.80;99.90;;;;;;4967368;28;20137;-72
2021/12/01 08:20:28;;;;;;;3.40;3.10;;;8.80;99.90;;;;;;4964801;28;20038;-72
2021/12/01 08:22:54;;;;;;;3.10;2.90;;;8.80;99.90;;;;;;4968560;28;20047;-72
2021/12/01 08:25:24;;;;;;;3.33;3.03;;;8.80;99.90;;;;;;4962746;28;20050;-72
2021/12/01 08:27:50;;;;;;;4.20;3.80;;;8.80;99.90;;;;;;4960322;28;20463;-72
2021/12/01 08:30:15;;;;;;;3.42;3.13;;;8.90;99.90;;;;;;4961914;28;20110;-72
2021/12/01 08:32:45;;;;;;;3.63;3.33;;;8.90;99.90;;;;;;4967453;28;20046;-76
2021/12/01 08:35:12;;;;;;;3.42;3.13;;;8.90;99.90;;;;;;4968303;28;20073;-76
2021/12/01 08:37:38;;;;;;;3.55;3.13;;;8.90;99.90;;;;;;4968873;28;20134;-73
2021/12/01 08:40:04;;;;;;;4.22;3.28;;;8.90;99.90;;;;;;4964671;28;20126;-73
2021/12/01 08:42:29;;;;;;;3.95;3.25;;;8.90;99.90;;;;;;4967233;28;20065;-74
2021/12/01 08:44:55;;;;;;;3.70;3.40;;;8.90;99.90;;;;;;4970527;28;20482;-75
2021/12/01 08:47:24;;;;;;;3.78;3.38;;;9.00;99.90;;;;;;4970408;28;20109;-76
2021/12/01 08:49:51;;;;;;;4.05;3.65;;;9.00;99.90;;;;;;4970250;28;20043;-76
2021/12/01 08:52:16;;;;;;;4.68;3.70;;;9.10;99.90;;;;;;4970367;28;20042;-75
2021/12/01 08:54:43;;;;;;;4.47;3.85;;;9.10;99.90;;;;;;4970340;28;20053;-75
2021/12/01 08:57:08;;;;;;;6.60;3.53;;;9.10;99.90;;;;;;4971240;28;20483;-76
2021/12/01 08:59:35;;;;;;;5.63;4.07;;;9.10;99.90;;;;;;4970673;28;20050;-76
2021/12/01 09:02:01;;;;;;;5.38;4.10;;;9.10;99.90;;;;;;4970747;28;20097;-76
2021/12/01 09:04:27;;;;;;;5.35;4.72;;;9.10;99.90;;;;;;4971101;28;20470;-76
2021/12/01 09:06:53;;;;;;;4.80;4.28;;;9.10;99.90;;;;;;4965043;28;20047;-76
2021/12/01 09:09:19;;;;;;;7.78;4.47;;;9.10;99.90;;;;;;4968921;28;20078;-76
2021/12/01 09:11:50;;;;;;;5.60;4.80;;;9.10;99.90;;;;;;4967421;28;20522;-76
2021/12/01 09:14:16;;;;;;;9.02;6.38;;;9.10;99.90;;;;;;4968718;28;20054;-76
2021/12/01 09:16:46;;;;;;;6.20;5.10;;;9.20;99.90;;;;;;4970342;28;20406;-77
2021/12/01 09:19:12;;;;;;;7.78;5.95;;;9.20;99.90;;;;;;4960932;28;20100;-78
2021/12/01 09:21:38;;;;;;;6.45;5.70;;;9.10;99.90;;;;;;4968527;28;20173;-78
2021/12/01 09:24:04;;;;;;;7.45;5.68;;;9.20;99.90;;;;;;4968070;28;20125;-77
2021/12/01 09:26:31;;;;;;;7.32;5.97;;;9.20;99.90;;;;;;4971129;28;20046;-77
2021/12/01 09:28:57;;;;;;;5.63;4.32;;;9.20;99.90;;;;;;4962325;28;20043;-77
2021/12/01 09:31:23;;;;;;;5.70;3.97;;;9.20;99.90;;;;;;4969090;28;20047;-75
2021/12/01 09:33:49;;;;;;;6.93;3.50;;;9.20;99.90;;;;;;4968343;28;20054;-77
2021/12/01 09:36:15;;;;;;;9.18;3.35;;;9.30;99.90;;;;;;4967456;28;20069;-78
2021/12/01 09:38:41;;;;;;;7.15;3.20;;;9.40;99.90;;;;;;4967879;28;20102;-77
2021/12/01 09:41:08;;;;;;;8.23;2.72;;;9.30;99.90;;;;;;4967891;28;20105;-77
2021/12/01 09:43:34;;;;;;;6.72;2.40;;;9.40;99.90;;;;;;4967577;28;20053;-76
2021/12/01 09:46:04;;;;;;;8.50;2.67;;;9.40;99.90;;;;;;4964087;28;20053;-77
2021/12/01 09:48:32;;;;;;;7.75;2.65;;;9.40;99.90;;;;;;4969129;28;20073;-77
2021/12/01 09:50:58;;;;;;;9.32;2.55;;;9.40;99.90;;;;;;4967150;28;20138;-77
2021/12/01 09:53:24;;;;;;;10.45;2.40;;;9.40;99.90;;;;;;4958760;28;20125;-75
2021/12/01 09:55:50;;;;;;;8.48;2.20;;;9.40;99.90;;;;;;4967983;28;20667;-72
2021/12/01 09:58:18;;;;;;;7.53;2.05;;;9.40;99.90;;;;;;4969741;28;20121;-72
2021/12/01 10:00:47;;;;;;;6.97;2.00;;;9.40;99.90;;;;;;4970144;28;20078;-72
2021/12/01 10:03:14;;;;;;;7.00;1.88;;;9.40;99.90;;;;;;4968496;28;20053;-73
2021/12/01 10:05:46;;;;;;;8.32;2.03;;;9.40;99.90;;;;;;4969537;28;20511;-73
2021/12/01 10:08:20;;;;;;;9.82;1.73;;;9.50;99.90;;;;;;4966914;28;20050;-74
2021/12/01 10:10:46;;;;;;;12.52;2.13;;;9.40;99.90;;;;;;4967660;28;20058;-73
2021/12/01 10:13:12;;;;;;;9.13;1.95;;;9.40;99.90;;;;;;4970191;28;20118;-73
2021/12/01 10:15:37;;;;;;;10.75;1.90;;;9.40;99.90;;;;;;4969859;28;20574;-73
2021/12/01 10:18:15;;;;;;;10.73;2.05;;;9.40;99.90;;;;;;4967899;28;20050;-73
2021/12/01 10:20:43;;;;;;;11.23;2.15;;;9.40;99.90;;;;;;4963713;28;20483;-81
2021/12/01 10:23:12;;;;;;;11.32;1.70;;;9.40;99.90;;;;;;4967870;28;20077;-77
2021/12/01 10:25:39;;;;;;;11.63;1.80;;;9.40;99.90;;;;;;4967843;28;20050;-76
2021/12/01 10:28:05;;;;;;;7.53;1.50;;;9.40;99.90;;;;;;4967448;28;20494;-78
2021/12/01 10:30:40;;;;;;;7.95;1.50;;;9.30;99.90;;;;;;4967700;28;20087;-78
2021/12/01 10:33:15;;;;;;;9.00;1.92;;;9.30;99.90;;;;;;4968115;28;20038;-76
2021/12/01 10:35:42;;;;;;;7.18;1.98;;;9.30;99.90;;;;;;4968617;28;20493;-77
2021/12/01 10:38:09;;;;;;;9.25;2.50;;;9.20;99.90;;;;;;4969009;28;20097;-76
2021/12/01 10:40:36;;;;;;;;;;;9.30;99.90;;;;;;4967416;28;20079;-77
2021/12/01 10:43:04;;;;;;;10.23;1.70;;;9.30;99.90;;;;;;4969237;28;19922;-77
2021/12/01 10:45:42;;;;;;;10.02;2.28;;;9.30;99.90;;;;;;4966002;28;20050;-78
2021/12/01 10:48:11;;;;;;;9.00;1.45;;;9.20;99.90;;;;;;4981126;28;20047;-77
2021/12/01 10:50:42;;;;;;;12.40;2.47;;;9.20;99.90;;;;;;4966977;28;20042;-76
2021/12/01 10:53:10;;;;;;;7.93;1.92;;;9.20;99.90;;;;;;4964574;28;20101;-76
2021/12/01 10:55:46;;;;;;;12.02;1.80;;;9.20;99.90;;;;;;4964836;28;20058;-73
2021/12/01 10:58:12;;;;;;;8.57;1.65;;;9.30;99.90;;;;;;4968766;28;20042;-71
2021/12/01 11:00:43;;;;;;;11.10;2.15;;;9.20;99.90;;;;;;4966458;28;20038;-72
2021/12/01 11:03:13;;;;;;;7.60;1.75;;;9.20;99.90;;;;;;4966480;28;20655;-77
2021/12/01 11:05:44;;;;;;;10.40;1.85;;;9.20;99.90;;;;;;4967176;28;20065;-75
2021/12/01 11:08:09;;;;;;;11.00;2.30;;;9.20;99.90;;;;;;4966224;28;20050;-76
2021/12/01 11:10:35;;;;;;;9.73;1.60;;;9.20;99.90;;;;;;4966687;28;20054;-78
2021/12/01 11:13:02;;;;;;;8.80;1.73;;;9.20;99.90;;;;;;4968120;28;20043;-76
2021/12/01 11:15:36;;;;;;;11.55;2.28;;;9.20;99.90;;;;;;4966311;28;20161;-76
2021/12/01 11:18:02;;;;;;;8.07;1.77;;;9.20;99.90;;;;;;4966805;28;20051;-72
2021/12/01 11:20:44;;;;;;;10.03;2.00;;;9.20;99.90;;;;;;4964630;28;20101;-72
2021/12/01 11:23:14;;;;;;;12.40;2.05;;;9.20;99.90;;;;;;4965021;28;20055;-76
2021/12/01 11:25:42;;;;;;;9.68;1.90;;;9.20;99.90;;;;;;4963296;28;20051;-76
2021/12/01 11:28:13;;;;;;;9.15;2.00;;;9.30;99.90;;;;;;4966340;28;20047;-75
2021/12/01 11:30:44;;;;;;;12.50;2.47;;;9.30;99.90;;;;;;4965886;28;20042;-77
2021/12/01 11:33:13;;;;;;;9.43;2.55;;;9.30;99.90;;;;;;4966867;28;20106;-78
2021/12/01 11:35:41;;;;;;;9.98;2.03;;;9.30;99.90;;;;;;4965831;28;20113;-78
2021/12/01 11:38:09;;;;;;;13.15;2.47;;;9.30;99.90;;;;;;4967724;28;20129;-76
2021/12/01 11:40:35;;;;;;;12.30;2.50;;;9.30;99.90;;;;;;4965840;28;20070;-80
2021/12/01 11:43:01;;;;;;;12.43;3.10;;;9.30;99.90;;;;;;4966057;28;20043;-78
2021/12/01 11:45:26;;;;;;;17.00;2.30;;;9.40;99.90;;;;;;4968414;28;20066;-69
2021/12/01 11:47:53;;;;;;;12.90;2.20;;;9.40;99.90;;;;;;4971661;28;20121;-76
2021/12/01 11:50:32;;;;;;;12.23;2.72;;;9.40;99.90;;;;;;4984979;28;20101;-75
2021/12/01 11:53:15;;;;;;;14.13;2.38;;;9.40;99.90;;;;;;4970774;28;20049;-76
2021/12/01 11:55:58;;;;;;;8.48;2.25;;;9.40;99.90;;;;;;4970073;28;20592;-76
2021/12/01 11:58:46;;;;;;;10.65;2.35;;;9.40;99.90;;;;;;4972184;28;20039;-74
2021/12/01 12:01:21;;;;;;;15.27;3.22;;;9.40;99.90;;;;;;4970815;28;20047;-75
2021/12/01 12:03:53;;;;;;;10.45;2.40;;;9.40;99.90;;;;;;4967927;28;20054;-75
2021/12/01 12:06:22;;;;;;;15.05;2.97;;;9.40;99.90;;;;;;4971741;28;20058;-76
2021/12/01 12:08:57;;;;;;;14.27;3.30;;;9.40;99.90;;;;;;4967932;28;20138;-75
2021/12/01 12:11:35;;;;;;;12.93;2.60;;;9.50;99.90;;;;;;4984192;28;20054;-78
2021/12/01 12:14:26;;;;;;;14.48;3.15;;;9.50;99.90;;;;;;4969417;28;20047;-80
2021/12/01 12:17:18;;;;;;;12.45;2.70;;;9.40;99.90;;;;;;4969156;28;20078;-76
2021/12/01 12:19:44;;;;;;;16.83;3.20;;;9.40;99.90;;;;;;4958541;28;20159;-76
2021/12/01 12:22:31;;;;;;;15.38;2.70;;;9.40;99.90;;;;;;4971665;28;20173;-79
2021/12/01 12:24:57;;;;;;;;;;;9.40;99.90;;;;;;4983554;28;20226;-81
2021/12/01 12:27:39;;;;;;;14.05;2.97;;;9.40;99.90;;;;;;4970450;28;20031;-73
2021/12/01 12:30:28;;;;;;;13.90;3.05;;;9.30;99.90;;;;;;4966646;28;20051;-75
2021/12/01 12:33:15;;;;;;;17.48;4.03;;;9.30;99.90;;;;;;4958687;28;20055;-75
2021/12/01 12:35:43;;;;;;;14.88;2.83;;;9.30;99.90;;;;;;4964289;28;20117;-77
2021/12/01 12:38:09;;;;;;;13.13;3.08;;;9.30;99.90;;;;;;4970328;28;20430;-80
2021/12/01 12:40:34;;;;;;;18.73;3.70;;;9.30;99.90;;;;;;4968646;28;20038;-79
2021/12/01 12:43:23;;;;;;;15.35;3.28;;;9.30;99.90;;;;;;4968362;28;20146;-77
2021/12/01 12:46:12;;;;;;;20.20;3.30;;;9.30;99.90;;;;;;4951938;28;20081;-81
2021/12/01 12:48:48;;;;;;;15.98;2.65;;;9.30;99.90;;;;;;4968683;28;20039;-83
2021/12/01 12:51:18;;;;;;;20.00;2.80;;;9.20;99.90;;;;;;4969718;28;20038;-72
2021/12/01 12:53:59;;;;;;;11.75;2.63;;;9.10;99.90;;;;;;4968752;28;20055;-74
2021/12/01 12:56:28;;;;;;;14.65;2.83;;;9.10;99.90;;;;;;4971136;28;20086;-74
2021/12/01 12:59:19;;;;;;;16.88;3.30;;;9.10;99.90;;;;;;4967527;28;20043;-79